BIENTÔT MET'MAP
version 2.0 !

Prévue avant fin octobre,
la nouvelle version sera
plus belle, plus complète
et hébergée sur un serveur
3 fois plus puissant...
et toujours gratuite !


Pas compatible ?
Essayez la version Mobile !

SE CONNECTER : | S'inscrire | Disclaimer | Découvrir Orbifly |
Code OACI :

TAF - LFDB Montauban - 23 Feb 2020 21:14 UTC
Data Sources :     NOAA   


- Altitude de l'aérodrome : 351 ft
- Code IATA : XMW
- Pas de NOTAMs connus.


LFDB - Montauban

Dernier METAR connu : 0000/00/00 L :23 TAF LELL 231400Z 2315/2415 25007KT 9999 FEW030 TX22/2413Z TN05/2406Z BECMG 2318/2320 VRB03KT TEMPO 2410/2415 23007KT
PAS DE TAF


MET'MAP, la Météo Aéronautique d'un coup d'oeil ! - Copyright ORBIFLY Décembre 2007

Développement & Programmation : Alexandra Zaïnal
Co-Développement : Marc-Olivier Méhu
Soutien technique & logistique : Manuel Goepfert
Conception & Financement : Baudouin d'Aumeries